createdAt,value
2019-05-23T00:03:10.209Z,12.74
2019-05-23T00:08:07.555Z,12.68
2019-05-23T00:13:03.775Z,12.56
2019-05-23T00:17:59.787Z,12.49
2019-05-23T00:22:54.442Z,12.41
2019-05-23T00:27:50.279Z,12.42
2019-05-23T00:32:49.714Z,12.37
2019-05-23T00:37:46.061Z,12.26
2019-05-23T00:42:42.142Z,12.17
2019-05-23T00:47:36.875Z,12.14
2019-05-23T00:52:32.013Z,12.12
2019-05-23T00:57:29.589Z,12.14
2019-05-23T01:02:25.382Z,12.24
2019-05-23T01:07:21.263Z,12.33
2019-05-23T01:12:16.655Z,12.29
2019-05-23T01:17:12.300Z,12.22
2019-05-23T01:22:14.583Z,12.27
2019-05-23T01:27:10.523Z,12.24
2019-05-23T01:32:26.479Z,12.17
2019-05-23T01:37:21.899Z,12.20
2019-05-23T01:42:17.648Z,12.21
2019-05-23T01:47:14.295Z,12.17
2019-05-23T01:52:09.169Z,12.01
2019-05-23T01:57:06.064Z,11.82
2019-05-23T02:02:00.833Z,11.74
2019-05-23T02:06:56.871Z,11.73
2019-05-23T02:11:52.362Z,11.64
2019-05-23T02:16:47.894Z,11.59
2019-05-23T02:21:43.241Z,11.49
2019-05-23T02:26:39.219Z,11.37
2019-05-23T02:31:35.362Z,11.21
2019-05-23T02:36:30.684Z,11.07
2019-05-23T02:41:27.553Z,11.06
2019-05-23T02:46:31.707Z,11.00
2019-05-23T02:51:32.725Z,10.97
2019-05-23T02:56:32.049Z,10.94
2019-05-23T03:01:44.272Z,10.87
2019-05-23T03:06:41.494Z,10.82
2019-05-23T03:11:39.305Z,10.83
2019-05-23T03:16:38.681Z,10.67
2019-05-23T03:21:33.748Z,10.54
2019-05-23T03:27:03.136Z,10.47
2019-05-23T03:32:15.958Z,10.34
2019-05-23T03:37:12.725Z,10.24
2019-05-23T03:42:08.470Z,10.17
2019-05-23T03:47:04.695Z,10.14
2019-05-23T03:52:01.243Z,10.27
2019-05-23T03:56:55.818Z,10.20
2019-05-23T04:01:52.760Z,10.02
2019-05-23T04:06:48.442Z,10.27
2019-05-23T04:11:43.192Z,10.96
2019-05-23T04:16:38.241Z,11.84
2019-05-23T04:21:32.976Z,12.64
2019-05-23T04:26:28.125Z,13.25
2019-05-23T04:31:23.669Z,13.58
2019-05-23T04:36:20.429Z,14.45
2019-05-23T04:41:15.627Z,14.79
2019-05-23T04:46:10.293Z,14.81
2019-05-23T04:51:06.169Z,15.72
2019-05-23T04:56:03.346Z,16.70
2019-05-23T05:00:58.934Z,18.12
2019-05-23T05:05:53.681Z,18.81
2019-05-23T05:10:48.409Z,18.60
2019-05-23T05:15:43.609Z,17.72
2019-05-23T05:20:38.276Z,16.83
2019-05-23T05:25:32.915Z,17.12
2019-05-23T05:30:32.924Z,18.16
2019-05-23T05:35:29.455Z,19.78
2019-05-23T05:40:32.709Z,20.61
2019-05-23T05:45:39.156Z,21.61
2019-05-23T05:50:36.225Z,21.70
2019-05-23T05:55:34.979Z,21.87
2019-05-23T06:00:36.753Z,22.01
2019-05-23T06:05:49.699Z,21.91
2019-05-23T06:10:45.975Z,22.12
2019-05-23T06:15:45.196Z,22.14
2019-05-23T06:20:43.263Z,22.12
2019-05-23T06:25:37.984Z,21.21
2019-05-23T06:30:34.487Z,21.27
2019-05-23T06:35:29.662Z,21.03
2019-05-23T06:40:25.685Z,20.68
2019-05-23T06:45:22.244Z,19.81
2019-05-23T06:50:20.726Z,20.01
2019-05-23T06:55:15.945Z,20.19
2019-05-23T07:00:14.568Z,20.42
2019-05-23T07:05:10.528Z,20.36
2019-05-23T07:10:11.102Z,19.47
2019-05-23T07:15:07.839Z,19.72
2019-05-23T07:20:03.192Z,20.00
2019-05-23T07:24:59.165Z,20.18
2019-05-23T07:29:53.939Z,19.73
2019-05-23T07:34:48.677Z,20.11
2019-05-23T07:39:44.231Z,20.26
2019-05-23T07:44:48.587Z,20.53
2019-05-23T07:49:43.096Z,20.45
2019-05-23T07:54:39.623Z,20.62
2019-05-23T07:59:34.521Z,20.41
2019-05-23T08:04:30.860Z,20.34
2019-05-23T08:09:28.317Z,20.39
2019-05-23T08:14:23.053Z,19.48
2019-05-23T08:19:19.656Z,20.19
2019-05-23T08:24:16.629Z,18.87
2019-05-23T08:29:25.303Z,19.61
2019-05-23T08:34:11.401Z,19.93
2019-05-23T08:39:10.599Z,20.45
2019-05-23T08:44:11.723Z,20.76
2019-05-23T08:49:08.758Z,20.63
2019-05-23T08:54:05.239Z,20.21
2019-05-23T08:59:00.855Z,19.65
2019-05-23T09:04:04.096Z,19.45
2019-05-23T09:09:02.536Z,19.75
2019-05-23T09:14:01.550Z,19.79
2019-05-23T09:18:58.533Z,20.38
2019-05-23T09:23:53.931Z,21.02
2019-05-23T09:28:49.973Z,21.41
2019-05-23T09:33:44.780Z,21.15
2019-05-23T09:38:40.163Z,21.05
2019-05-23T09:43:36.578Z,19.68
2019-05-23T09:48:31.536Z,19.97
2019-05-23T09:53:26.935Z,20.50
2019-05-23T09:58:21.944Z,20.63
2019-05-23T10:03:21.818Z,20.88
2019-05-23T10:08:17.005Z,21.29
2019-05-23T10:13:11.882Z,21.67
2019-05-23T10:18:07.978Z,21.59
2019-05-23T10:23:03.383Z,21.70
2019-05-23T10:27:58.063Z,22.18
2019-05-23T10:32:52.727Z,22.17
2019-05-23T10:37:47.401Z,21.87
2019-05-23T10:42:42.137Z,22.19
2019-05-23T10:47:38.298Z,22.51
2019-05-23T10:52:34.383Z,22.49
2019-05-23T10:57:29.582Z,22.80
2019-05-23T11:02:26.996Z,22.33
2019-05-23T11:07:21.392Z,22.81
2019-05-23T11:12:16.054Z,21.17
2019-05-23T11:17:12.799Z,21.23
2019-05-23T11:22:08.038Z,21.04
2019-05-23T11:27:03.128Z,21.56
2019-05-23T11:31:59.276Z,21.44
2019-05-23T11:36:59.160Z,21.81
2019-05-23T11:41:55.130Z,22.11
2019-05-23T11:46:51.346Z,21.34
2019-05-23T11:51:53.053Z,21.29
2019-05-23T11:56:51.349Z,21.30
2019-05-23T12:01:49.459Z,21.06
2019-05-23T12:06:55.430Z,20.32
2019-05-23T12:11:47.736Z,20.76
2019-05-23T12:16:42.455Z,21.13
2019-05-23T12:21:37.343Z,21.45
2019-05-23T12:26:36.768Z,20.91
2019-05-23T12:31:31.597Z,21.15
2019-05-23T12:36:27.910Z,21.04
2019-05-23T12:41:22.656Z,21.46
2019-05-23T12:46:17.798Z,21.13
2019-05-23T12:51:15.022Z,21.90
2019-05-23T12:56:09.782Z,22.26
2019-05-23T13:01:06.514Z,22.51
2019-05-23T13:06:01.261Z,22.81
2019-05-23T13:10:55.858Z,22.95
2019-05-23T13:15:51.398Z,22.93
2019-05-23T13:20:46.308Z,23.03
2019-05-23T13:25:41.409Z,22.60
2019-05-23T13:30:36.274Z,22.85
2019-05-23T13:35:31.669Z,23.30
2019-05-23T13:40:26.320Z,22.86
2019-05-23T13:45:21.071Z,22.33
2019-05-23T13:50:17.417Z,22.25
2019-05-23T13:55:12.695Z,21.81
2019-05-23T14:00:18.043Z,21.55
2019-05-23T14:05:18.964Z,21.75
2019-05-23T14:10:12.527Z,21.85
2019-05-23T14:15:11.174Z,22.45
2019-05-23T14:20:07.883Z,22.30
2019-05-23T14:25:03.350Z,22.46
2019-05-23T14:30:07.526Z,22.14
2019-05-23T14:34:58.277Z,21.76
2019-05-23T14:39:54.501Z,21.77
2019-05-23T14:44:49.480Z,21.76
2019-05-23T14:49:48.542Z,21.87
2019-05-23T14:54:45.024Z,22.17
2019-05-23T14:59:39.785Z,21.96
2019-05-23T15:04:34.532Z,21.69
2019-05-23T15:09:29.191Z,21.12
2019-05-23T15:14:23.905Z,20.98
2019-05-23T15:19:38.115Z,21.41
2019-05-23T15:24:15.756Z,21.81
2019-05-23T15:29:10.348Z,21.99
2019-05-23T15:34:05.504Z,21.95
2019-05-23T15:39:09.394Z,21.65
2019-05-23T15:43:56.553Z,21.82
2019-05-23T15:48:51.211Z,21.76
2019-05-23T15:53:48.316Z,21.41
2019-05-23T15:58:44.638Z,21.98
2019-05-23T16:03:41.177Z,22.17
2019-05-23T16:08:35.778Z,22.32
2019-05-23T16:13:30.372Z,22.18
2019-05-23T16:18:25.606Z,22.24
2019-05-23T16:23:20.470Z,22.31
2019-05-23T16:28:15.113Z,21.88
2019-05-23T16:33:09.802Z,22.12
2019-05-23T16:38:04.541Z,22.07
2019-05-23T16:42:59.129Z,21.98
2019-05-23T16:47:53.728Z,21.58
2019-05-23T16:52:48.310Z,21.71
2019-05-23T16:57:44.557Z,21.57
2019-05-23T17:02:40.780Z,21.78
2019-05-23T17:07:54.539Z,21.90
2019-05-23T17:12:50.755Z,21.64
2019-05-23T17:18:03.472Z,21.63
2019-05-23T17:23:02.827Z,21.56
2019-05-23T17:28:05.151Z,21.55
2019-05-23T17:33:01.455Z,21.32
2019-05-23T17:37:56.113Z,21.22
2019-05-23T17:42:50.833Z,21.12
2019-05-23T17:47:45.530Z,21.34
2019-05-23T17:52:40.238Z,21.40
2019-05-23T17:57:35.154Z,21.34
2019-05-23T18:02:30.753Z,21.23
2019-05-23T18:07:25.583Z,21.32
2019-05-23T18:12:20.861Z,21.20
2019-05-23T18:17:15.455Z,21.06
2019-05-23T18:22:11.986Z,21.01
2019-05-23T18:27:08.353Z,20.90
2019-05-23T18:32:04.662Z,20.86
2019-05-23T18:37:00.284Z,20.46
2019-05-23T18:41:55.036Z,20.20
2019-05-23T18:46:51.341Z,20.09
2019-05-23T18:51:46.010Z,21.23
2019-05-23T18:56:40.820Z,20.84
2019-05-23T19:01:36.992Z,20.10
2019-05-23T19:06:31.749Z,19.57
2019-05-23T19:11:26.492Z,19.13
2019-05-23T19:16:21.137Z,18.85
2019-05-23T19:21:15.724Z,18.39
2019-05-23T19:26:10.554Z,18.28
2019-05-23T19:31:06.644Z,17.69
2019-05-23T19:36:01.370Z,17.67
2019-05-23T19:40:56.213Z,17.61
2019-05-23T19:45:51.855Z,17.70
2019-05-23T19:50:46.718Z,17.67
2019-05-23T19:55:41.362Z,17.76
2019-05-23T20:00:36.841Z,17.66
2019-05-23T20:05:38.407Z,17.56
2019-05-23T20:10:33.888Z,17.40
2019-05-23T20:15:29.238Z,17.22
2019-05-23T20:20:23.833Z,17.09
2019-05-23T20:25:19.648Z,17.02
2019-05-23T20:30:22.035Z,16.87
2019-05-23T20:35:16.848Z,16.67
2019-05-23T20:40:11.904Z,16.42
2019-05-23T20:45:07.693Z,16.17
2019-05-23T20:50:02.368Z,16.00
2019-05-23T20:54:57.028Z,15.77
2019-05-23T20:59:51.793Z,15.66
2019-05-23T21:04:46.513Z,15.56
2019-05-23T21:09:41.188Z,15.39
2019-05-23T21:14:35.780Z,15.28
2019-05-23T21:19:30.463Z,15.15
2019-05-23T21:24:25.056Z,14.98
2019-05-23T21:29:19.640Z,14.92
2019-05-23T21:34:14.239Z,14.83
2019-05-23T21:39:11.159Z,14.72
2019-05-23T21:44:06.342Z,14.65
2019-05-23T21:49:00.938Z,14.54
2019-05-23T21:53:55.538Z,14.37
2019-05-23T21:58:50.119Z,14.28
2019-05-23T22:03:44.484Z,14.21
2019-05-23T22:08:39.803Z,14.09
2019-05-23T22:13:34.470Z,14.08
2019-05-23T22:18:29.529Z,13.96
2019-05-23T22:23:24.269Z,13.89
2019-05-23T22:28:19.666Z,13.80
2019-05-23T22:33:15.969Z,13.75
2019-05-23T22:38:10.843Z,13.69
2019-05-23T22:43:19.957Z,13.59
2019-05-23T22:48:02.588Z,13.55
2019-05-23T22:52:57.185Z,13.46
2019-05-23T22:57:51.761Z,13.32
2019-05-23T23:02:46.558Z,13.16
2019-05-23T23:07:41.216Z,13.11
2019-05-23T23:12:36.155Z,13.06
2019-05-23T23:17:32.648Z,13.04
2019-05-23T23:22:27.238Z,12.91
2019-05-23T23:27:21.910Z,12.88
2019-05-23T23:32:16.579Z,12.81
2019-05-23T23:37:11.228Z,12.78
2019-05-23T23:42:06.831Z,12.65
2019-05-23T23:47:19.851Z,12.57
2019-05-23T23:52:31.913Z,12.49
2019-05-23T23:57:44.330Z,12.48
